Terminal Aerodrome Forecast
Issued by NWS Huntsville, AL

Current Version | Previous Version | Text Only | Print | Product List | Glossary On
Versions: 1 2 3 4 5 6 7 8 9 10 11 12 13 14 15 16 17 18 19 20 21 22 23 24 25 26 27
000
FTUS44 KHUN 221912 AAA
TAFHSV
TAF AMD
KHSV 221912Z 2219/2318 11009KT P6SM SCT035 SCT060 BKN250
      TEMPO 2219/2223 BKN035
     FM222300 VRB02KT P6SM SKC
     FM230400 VRB02KT 4SM BR SKC
      TEMPO 2308/2312 2SM BR
     FM231500 16006KT P6SM SCT030=

USA.gov is the U.S. government's official web portal to all federal, state and local government web resources and services.